createdAt,value
2017-07-25T00:00:13.996Z,100563.55
2017-07-25T00:02:41.822Z,100561.16
2017-07-25T00:05:09.616Z,100561.73
2017-07-25T00:07:37.442Z,100556.88
2017-07-25T00:10:05.219Z,100559.75
2017-07-25T00:12:33.041Z,100552.73
2017-07-25T00:15:00.823Z,100548.90
2017-07-25T00:17:28.659Z,100545.75
2017-07-25T00:19:56.442Z,100546.38
2017-07-25T00:22:24.288Z,100542.98
2017-07-25T00:24:52.055Z,100539.42
2017-07-25T00:27:19.838Z,100540.46
2017-07-25T00:29:47.672Z,100538.27
2017-07-25T00:32:15.388Z,100534.47
2017-07-25T00:34:43.150Z,100531.73
2017-07-25T00:37:10.928Z,100533.18
2017-07-25T00:39:38.741Z,100531.06
2017-07-25T00:42:06.545Z,100524.49
2017-07-25T00:44:34.364Z,100525.94
2017-07-25T00:47:02.176Z,100521.72
2017-07-25T00:49:30.024Z,100513.67
2017-07-25T00:51:57.793Z,100509.00
2017-07-25T00:54:25.600Z,100515.66
2017-07-25T00:56:53.443Z,100514.25
2017-07-25T00:59:21.228Z,100507.64
2017-07-25T01:01:49.063Z,100506.06
2017-07-25T01:04:16.824Z,100507.06
2017-07-25T01:06:44.631Z,100502.77
2017-07-25T01:09:12.423Z,100498.94
2017-07-25T01:11:40.279Z,100501.74
2017-07-25T01:14:08.073Z,100491.46
2017-07-25T01:16:35.842Z,100496.70
2017-07-25T01:19:03.687Z,100492.73
2017-07-25T01:21:31.468Z,100485.84
2017-07-25T01:23:59.214Z,100482.62
2017-07-25T01:26:27.001Z,100478.78
2017-07-25T01:28:54.831Z,100478.41
2017-07-25T01:31:22.676Z,100469.20
2017-07-25T01:33:50.718Z,100474.11
2017-07-25T01:36:18.507Z,100475.55
2017-07-25T01:38:46.290Z,100466.33
2017-07-25T01:41:14.133Z,100457.29
2017-07-25T01:43:41.924Z,100457.70
2017-07-25T01:46:09.748Z,100451.09
2017-07-25T01:48:37.552Z,100443.48
2017-07-25T01:51:05.403Z,100447.12
2017-07-25T01:53:33.204Z,100441.53
2017-07-25T01:56:01.037Z,100441.57
2017-07-25T01:58:28.817Z,100441.23
2017-07-25T02:00:56.619Z,100435.06
2017-07-25T02:03:24.472Z,100438.91
2017-07-25T02:05:52.265Z,100438.36
2017-07-25T02:08:20.084Z,100432.12
2017-07-25T02:13:23.305Z,100431.06
2017-07-25T02:15:51.000Z,100426.09
2017-07-25T02:18:18.741Z,100433.97
2017-07-25T02:20:46.521Z,100431.61
2017-07-25T02:23:14.512Z,100434.25
2017-07-25T02:25:42.300Z,100426.50
2017-07-25T02:28:10.071Z,100422.91
2017-07-25T02:30:37.980Z,100428.18
2017-07-25T02:33:05.746Z,100422.15
2017-07-25T02:35:33.560Z,100417.97
2017-07-25T02:38:01.329Z,100423.42
2017-07-25T02:40:29.157Z,100417.97
2017-07-25T02:42:56.944Z,100416.16
2017-07-25T02:45:24.752Z,100410.36
2017-07-25T02:47:52.554Z,100413.34
2017-07-25T02:50:20.257Z,100412.35
2017-07-25T02:52:48.077Z,100408.75
2017-07-25T02:55:15.862Z,100403.98
2017-07-25T02:57:43.705Z,100403.41
2017-07-25T03:00:11.483Z,100404.67
2017-07-25T03:02:39.307Z,100402.86
2017-07-25T03:05:07.116Z,100406.11
2017-07-25T03:07:34.884Z,100398.50
2017-07-25T03:10:02.664Z,100400.73
2017-07-25T03:12:30.445Z,100396.92
2017-07-25T03:14:58.268Z,100396.75
2017-07-25T03:17:26.040Z,100398.95
2017-07-25T03:19:53.859Z,100395.55
2017-07-25T03:22:21.649Z,100389.58
2017-07-25T03:24:49.487Z,100387.39
2017-07-25T03:27:17.411Z,100389.44
2017-07-25T03:29:45.265Z,100393.86
2017-07-25T03:32:13.104Z,100390.88
2017-07-25T03:34:40.923Z,100390.91
2017-07-25T03:37:08.712Z,100388.34
2017-07-25T03:39:36.426Z,100391.19
2017-07-25T03:42:04.173Z,100388.38
2017-07-25T03:44:31.891Z,100382.16
2017-07-25T03:46:59.731Z,100379.97
2017-07-25T03:49:27.508Z,100377.98
2017-07-25T03:51:55.383Z,100382.84
2017-07-25T03:54:23.188Z,100374.17
2017-07-25T03:56:51.063Z,100376.81
2017-07-25T03:59:18.819Z,100376.02
2017-07-25T04:01:46.584Z,100376.61
2017-07-25T04:04:14.423Z,100388.50
2017-07-25T04:06:42.220Z,100379.25
2017-07-25T04:09:10.049Z,100374.45
2017-07-25T04:11:37.823Z,100375.87
2017-07-25T04:14:05.679Z,100375.30
2017-07-25T04:16:33.464Z,100370.50
2017-07-25T04:19:01.305Z,100369.91
2017-07-25T04:21:29.090Z,100371.11
2017-07-25T04:23:56.791Z,100370.53
2017-07-25T04:26:24.612Z,100373.16
2017-07-25T04:28:52.384Z,100374.78
2017-07-25T04:31:20.256Z,100371.61
2017-07-25T04:33:48.043Z,100372.41
2017-07-25T04:36:15.879Z,100372.23
2017-07-25T04:38:44.580Z,100371.27
2017-07-25T04:41:12.368Z,100373.73
2017-07-25T04:43:40.209Z,100371.94
2017-07-25T04:46:07.977Z,100367.17
2017-07-25T04:48:35.815Z,100363.19
2017-07-25T04:51:03.587Z,100368.61
2017-07-25T04:53:31.332Z,100365.03
2017-07-25T04:55:59.130Z,100356.63
2017-07-25T04:58:26.915Z,100357.30
2017-07-25T05:00:54.750Z,100353.32
2017-07-25T05:03:22.546Z,100352.70
2017-07-25T05:05:50.381Z,100353.38
2017-07-25T05:08:18.161Z,100347.58
2017-07-25T05:10:46.020Z,100341.75
2017-07-25T05:13:13.804Z,100344.56
2017-07-25T05:15:41.594Z,100341.81
2017-07-25T05:18:09.424Z,100346.23
2017-07-25T05:20:37.201Z,100337.65
2017-07-25T05:23:05.033Z,100332.67
2017-07-25T05:25:32.827Z,100331.70
2017-07-25T05:28:00.695Z,100328.91
2017-07-25T05:30:28.539Z,100331.41
2017-07-25T05:32:56.372Z,100334.48
2017-07-25T05:35:24.122Z,100328.06
2017-07-25T05:37:51.821Z,100324.86
2017-07-25T05:40:19.578Z,100318.30
2017-07-25T05:42:47.284Z,100319.91
2017-07-25T05:45:15.036Z,100311.31
2017-07-25T05:47:42.753Z,100312.75
2017-07-25T05:50:10.449Z,100311.42
2017-07-25T05:52:38.195Z,100301.02
2017-07-25T05:55:05.884Z,100303.27
2017-07-25T05:57:33.644Z,100304.93
2017-07-25T06:00:01.463Z,100297.92
2017-07-25T06:02:29.204Z,100299.15
2017-07-25T06:04:56.890Z,100298.56
2017-07-25T06:07:24.644Z,100294.54
2017-07-25T06:09:53.848Z,100299.15
2017-07-25T06:12:21.669Z,100296.36
2017-07-25T06:14:49.403Z,100292.39
2017-07-25T06:17:17.114Z,100286.00
2017-07-25T06:19:44.916Z,100280.42
2017-07-25T06:22:12.605Z,100277.86
2017-07-25T06:24:40.311Z,100269.44
2017-07-25T06:27:09.389Z,100260.02
2017-07-25T06:29:37.181Z,100261.89
2017-07-25T06:32:04.919Z,100264.09
2017-07-25T06:34:32.597Z,100265.90
2017-07-25T06:37:00.392Z,100264.55
2017-07-25T06:39:28.107Z,100259.14
2017-07-25T06:41:55.811Z,100260.37
2017-07-25T06:44:23.565Z,100250.92
2017-07-25T06:46:51.261Z,100252.00
2017-07-25T06:49:19.029Z,100256.06
2017-07-25T06:51:46.718Z,100260.33
2017-07-25T06:54:14.482Z,100257.77
2017-07-25T06:56:42.211Z,100263.87
2017-07-25T06:59:09.931Z,100261.69
2017-07-25T07:01:37.694Z,100264.97
2017-07-25T07:04:05.490Z,100265.83
2017-07-25T07:06:33.315Z,100271.71
2017-07-25T07:09:01.144Z,100275.13
2017-07-25T07:11:28.993Z,100276.38
2017-07-25T07:13:56.810Z,100267.36
2017-07-25T07:16:24.605Z,100272.10
2017-07-25T07:18:52.470Z,100271.73
2017-07-25T07:21:20.476Z,100274.38
2017-07-25T07:23:48.253Z,100265.94
2017-07-25T07:26:16.076Z,100262.92
2017-07-25T07:28:43.849Z,100267.55
2017-07-25T07:31:11.579Z,100263.77
2017-07-25T07:33:39.447Z,100263.20
2017-07-25T07:36:07.374Z,100268.70
2017-07-25T07:38:35.210Z,100275.98
2017-07-25T07:41:03.085Z,100272.39
2017-07-25T07:43:30.927Z,100266.80
2017-07-25T07:45:58.902Z,100270.68
2017-07-25T07:48:26.726Z,100277.95
2017-07-25T07:50:54.618Z,100275.77
2017-07-25T07:53:22.590Z,100279.64
2017-07-25T07:55:50.470Z,100276.07
2017-07-25T07:58:18.405Z,100275.67
2017-07-25T08:00:46.252Z,100280.58
2017-07-25T08:03:14.151Z,100286.45
2017-07-25T08:05:41.988Z,100284.82
2017-07-25T08:08:09.754Z,100284.05
2017-07-25T08:10:37.544Z,100286.94
2017-07-25T08:13:05.317Z,100289.03
2017-07-25T08:15:33.217Z,100283.66
2017-07-25T08:18:01.045Z,100290.19
2017-07-25T08:20:28.968Z,100284.23
2017-07-25T08:22:56.790Z,100277.70
2017-07-25T08:25:24.619Z,100287.50
2017-07-25T08:27:52.557Z,100287.98
2017-07-25T08:30:20.382Z,100289.64
2017-07-25T08:32:48.295Z,100289.41
2017-07-25T08:35:16.159Z,100288.97
2017-07-25T08:37:44.050Z,100286.33
2017-07-25T08:40:11.909Z,100285.45
2017-07-25T08:42:39.807Z,100281.09
2017-07-25T08:45:07.636Z,100280.84
2017-07-25T08:47:35.533Z,100275.45
2017-07-25T08:50:03.365Z,100277.01
2017-07-25T08:52:31.202Z,100280.58
2017-07-25T08:54:59.086Z,100276.93
2017-07-25T08:57:26.964Z,100276.52
2017-07-25T08:59:54.862Z,100278.19
2017-07-25T09:02:22.732Z,100272.78
2017-07-25T09:04:50.611Z,100273.38
2017-07-25T09:07:18.447Z,100276.20
2017-07-25T09:09:46.374Z,100269.80
2017-07-25T09:12:14.214Z,100272.70
2017-07-25T09:14:42.056Z,100271.95
2017-07-25T09:17:09.966Z,100279.27
2017-07-25T09:19:37.811Z,100281.90
2017-07-25T09:22:05.735Z,100275.03
2017-07-25T09:24:33.579Z,100278.50
2017-07-25T09:27:01.468Z,100274.51
2017-07-25T09:29:29.302Z,100273.30
2017-07-25T09:31:57.257Z,100269.45
2017-07-25T09:34:24.995Z,100264.81
2017-07-25T09:36:52.917Z,100269.64
2017-07-25T09:39:20.761Z,100266.64
2017-07-25T09:41:48.709Z,100264.65
2017-07-25T09:44:16.600Z,100264.16
2017-07-25T09:46:44.472Z,100269.47
2017-07-25T09:49:12.369Z,100265.09
2017-07-25T09:51:40.204Z,100261.56
2017-07-25T09:54:08.122Z,100260.23
2017-07-25T09:56:36.070Z,100255.88
2017-07-25T09:59:04.405Z,100260.25
2017-07-25T10:01:32.132Z,100258.07
2017-07-25T10:03:59.953Z,100256.70
2017-07-25T10:06:27.721Z,100246.72
2017-07-25T10:08:55.470Z,100249.72
2017-07-25T10:11:23.248Z,100255.25
2017-07-25T10:13:50.985Z,100244.70
2017-07-25T10:16:18.747Z,100241.06
2017-07-25T10:18:46.488Z,100248.30
2017-07-25T10:21:14.302Z,100247.89
2017-07-25T10:23:42.039Z,100245.64
2017-07-25T10:26:09.861Z,100244.56
2017-07-25T10:28:37.629Z,100245.25
2017-07-25T10:31:05.425Z,100245.41
2017-07-25T10:33:33.216Z,100248.29
2017-07-25T10:36:00.923Z,100240.94
2017-07-25T10:38:28.722Z,100244.57
2017-07-25T10:40:56.454Z,100239.02
2017-07-25T10:43:24.231Z,100229.51
2017-07-25T10:45:51.988Z,100227.94
2017-07-25T10:48:19.826Z,100222.00
2017-07-25T10:50:47.578Z,100227.55
2017-07-25T10:53:15.301Z,100216.83
2017-07-25T10:55:43.117Z,100214.78
2017-07-25T10:58:10.848Z,100211.53
2017-07-25T11:00:38.672Z,100208.77
2017-07-25T11:03:06.506Z,100204.55
2017-07-25T11:05:34.316Z,100205.19
2017-07-25T11:08:02.091Z,100201.38
2017-07-25T11:10:29.992Z,100205.62
2017-07-25T11:12:57.763Z,100201.20
2017-07-25T11:15:25.692Z,100207.27
2017-07-25T11:17:53.442Z,100201.53
2017-07-25T11:20:21.265Z,100203.74
2017-07-25T11:22:49.098Z,100206.59
2017-07-25T11:25:16.920Z,100197.84
2017-07-25T11:27:44.716Z,100202.30
2017-07-25T11:30:12.538Z,100193.39
2017-07-25T11:32:40.361Z,100186.09
2017-07-25T11:35:08.144Z,100189.94
2017-07-25T11:37:35.932Z,100185.63
2017-07-25T11:40:03.692Z,100194.36
2017-07-25T11:42:31.486Z,100192.19
2017-07-25T11:44:59.250Z,100190.41
2017-07-25T11:47:27.076Z,100187.42
2017-07-25T11:49:55.887Z,100192.70
2017-07-25T11:52:26.155Z,100190.67
2017-07-25T11:54:55.612Z,100187.20
2017-07-25T11:57:24.917Z,100179.73
2017-07-25T11:59:54.989Z,100187.39
2017-07-25T12:02:25.864Z,100179.67
2017-07-25T12:04:55.073Z,100184.11
2017-07-25T12:07:24.940Z,100182.84
2017-07-25T12:09:54.539Z,100181.19
2017-07-25T12:12:23.843Z,100180.30
2017-07-25T12:14:55.978Z,100182.67
2017-07-25T12:17:24.748Z,100173.34
2017-07-25T12:19:53.488Z,100171.27
2017-07-25T12:22:21.575Z,100173.84
2017-07-25T12:24:51.409Z,100181.50
2017-07-25T12:27:19.701Z,100179.09
2017-07-25T12:29:48.155Z,100184.29
2017-07-25T12:32:16.311Z,100189.73
2017-07-25T12:34:47.329Z,100185.16
2017-07-25T12:37:16.251Z,100188.03
2017-07-25T12:39:45.265Z,100192.91
2017-07-25T12:42:13.542Z,100186.37
2017-07-25T12:44:42.402Z,100180.09
2017-07-25T12:47:12.336Z,100182.14
2017-07-25T12:49:43.066Z,100177.38
2017-07-25T12:52:12.492Z,100184.68
2017-07-25T12:54:42.629Z,100178.31
2017-07-25T12:57:13.958Z,100178.95
2017-07-25T12:59:42.665Z,100183.13
2017-07-25T13:02:22.550Z,100178.80
2017-07-25T13:04:51.959Z,100177.72
2017-07-25T13:07:20.814Z,100174.19
2017-07-25T13:09:49.858Z,100170.89
2017-07-25T13:12:20.534Z,100172.97
2017-07-25T13:14:48.884Z,100177.54
2017-07-25T13:17:20.817Z,100169.25
2017-07-25T13:19:51.573Z,100161.26
2017-07-25T13:22:20.594Z,100157.16
2017-07-25T13:24:50.779Z,100162.52
2017-07-25T13:27:20.455Z,100167.47
2017-07-25T13:29:51.008Z,100164.74
2017-07-25T13:32:21.901Z,100163.25
2017-07-25T13:34:51.277Z,100161.38
2017-07-25T13:37:19.831Z,100169.45
2017-07-25T13:39:49.901Z,100156.55
2017-07-25T13:42:19.667Z,100150.16
2017-07-25T13:44:49.142Z,100162.27
2017-07-25T13:47:17.377Z,100158.52
2017-07-25T13:49:45.328Z,100156.31
2017-07-25T13:52:13.945Z,100156.30
2017-07-25T13:54:44.786Z,100146.03
2017-07-25T13:57:13.060Z,100156.54
2017-07-25T13:59:41.995Z,100155.05
2017-07-25T14:02:10.778Z,100154.47
2017-07-25T14:04:40.525Z,100151.82
2017-07-25T14:07:10.199Z,100170.41
2017-07-25T14:09:40.017Z,100166.69
2017-07-25T14:12:10.026Z,100167.17
2017-07-25T14:14:39.223Z,100164.08
2017-07-25T14:17:08.950Z,100167.47
2017-07-25T14:19:38.276Z,100170.73
2017-07-25T14:22:07.501Z,100160.34
2017-07-25T14:24:38.534Z,100174.13
2017-07-25T14:27:07.300Z,100168.63
2017-07-25T14:29:37.553Z,100167.88
2017-07-25T14:32:09.012Z,100166.30
2017-07-25T14:34:39.445Z,100169.32
2017-07-25T14:37:07.880Z,100169.14
2017-07-25T14:39:35.811Z,100164.43
2017-07-25T14:42:04.717Z,100167.81
2017-07-25T14:44:34.667Z,100169.56
2017-07-25T14:47:03.259Z,100166.88
2017-07-25T14:49:31.798Z,100172.80
2017-07-25T14:52:02.197Z,100176.38
2017-07-25T14:54:29.947Z,100177.70
2017-07-25T14:56:58.025Z,100177.75
2017-07-25T14:59:26.781Z,100176.56
2017-07-25T15:01:56.103Z,100174.13
2017-07-25T15:04:25.099Z,100172.73
2017-07-25T15:06:54.148Z,100186.12
2017-07-25T15:09:24.414Z,100185.92
2017-07-25T15:11:54.549Z,100182.61
2017-07-25T15:14:24.365Z,100184.75
2017-07-25T15:16:55.152Z,100188.88
2017-07-25T15:22:00.179Z,100188.16
2017-07-25T15:24:29.565Z,100189.19
2017-07-25T15:27:02.074Z,100196.48
2017-07-25T15:29:30.851Z,100186.75
2017-07-25T15:32:02.613Z,100198.98
2017-07-25T15:34:33.916Z,100205.78
2017-07-25T15:37:02.190Z,100204.53
2017-07-25T15:39:30.747Z,100212.24
2017-07-25T15:42:03.493Z,100200.72
2017-07-25T15:44:35.686Z,100212.87
2017-07-25T15:47:04.155Z,100215.36
2017-07-25T15:49:33.601Z,100212.32
2017-07-25T15:52:02.453Z,100209.31
2017-07-25T15:57:03.318Z,100207.12
2017-07-25T15:59:32.979Z,100213.39
2017-07-25T16:02:02.809Z,100212.42
2017-07-25T16:04:33.477Z,100215.17
2017-07-25T16:07:02.208Z,100212.33
2017-07-25T16:09:31.334Z,100219.44
2017-07-25T16:12:02.464Z,100221.92
2017-07-25T16:14:33.816Z,100224.13
2017-07-25T16:17:01.768Z,100214.28
2017-07-25T16:19:29.808Z,100220.22
2017-07-25T16:21:59.327Z,100221.35
2017-07-25T16:24:27.732Z,100213.83
2017-07-25T16:26:56.638Z,100213.91
2017-07-25T16:29:26.056Z,100222.67
2017-07-25T16:31:57.863Z,100216.62
2017-07-25T16:34:25.864Z,100215.97
2017-07-25T16:36:54.714Z,100218.37
2017-07-25T16:39:23.944Z,100224.44
2017-07-25T16:41:54.840Z,100226.36
2017-07-25T16:44:25.239Z,100227.66
2017-07-25T16:46:54.633Z,100219.41
2017-07-25T16:49:23.249Z,100221.95
2017-07-25T16:51:51.363Z,100220.37
2017-07-25T16:54:21.421Z,100225.44
2017-07-25T16:56:49.424Z,100219.83
2017-07-25T16:59:18.287Z,100230.44
2017-07-25T17:01:46.289Z,100230.20
2017-07-25T17:04:15.234Z,100217.67
2017-07-25T17:06:44.814Z,100218.84
2017-07-25T17:09:14.318Z,100221.82
2017-07-25T17:11:42.643Z,100211.14
2017-07-25T17:14:12.285Z,100211.69
2017-07-25T17:16:41.350Z,100213.64
2017-07-25T17:19:09.482Z,100211.39
2017-07-25T17:21:38.495Z,100207.86
2017-07-25T17:24:07.360Z,100228.53
2017-07-25T17:26:35.520Z,100204.06
2017-07-25T17:29:04.302Z,100207.11
2017-07-25T17:31:34.640Z,100212.06
2017-07-25T17:34:03.380Z,100209.81
2017-07-25T17:36:32.093Z,100207.96
2017-07-25T17:39:00.438Z,100205.33
2017-07-25T17:41:30.494Z,100207.52
2017-07-25T17:44:00.891Z,100210.12
2017-07-25T17:46:30.192Z,100204.30
2017-07-25T17:48:59.476Z,100209.33
2017-07-25T17:51:27.686Z,100200.95
2017-07-25T17:53:57.093Z,100199.31
2017-07-25T17:56:25.085Z,100196.91
2017-07-25T17:58:53.957Z,100195.88
2017-07-25T18:01:22.992Z,100191.27
2017-07-25T18:03:52.190Z,100189.59
2017-07-25T18:06:22.544Z,100193.66
2017-07-25T18:08:52.550Z,100177.24
2017-07-25T18:11:21.615Z,100185.83
2017-07-25T18:13:52.056Z,100186.89
2017-07-25T18:16:23.072Z,100181.28
2017-07-25T18:18:51.311Z,100175.56
2017-07-25T18:21:21.235Z,100188.36
2017-07-25T18:23:49.115Z,100184.16
2017-07-25T18:26:18.657Z,100177.41
2017-07-25T18:28:47.769Z,100184.19
2017-07-25T18:31:16.795Z,100183.02
2017-07-25T18:33:45.431Z,100195.64
2017-07-25T18:36:15.196Z,100179.80
2017-07-25T18:38:44.687Z,100183.16
2017-07-25T18:41:15.698Z,100171.63
2017-07-25T18:43:44.534Z,100181.62
2017-07-25T18:46:13.766Z,100182.20
2017-07-25T18:48:42.410Z,100186.20
2017-07-25T18:51:12.851Z,100179.40
2017-07-25T18:53:41.165Z,100173.99
2017-07-25T18:56:09.226Z,100187.74
2017-07-25T18:58:37.219Z,100190.69
2017-07-25T19:01:05.867Z,100193.66
2017-07-25T19:03:35.037Z,100196.16
2017-07-25T19:06:06.198Z,100198.10
2017-07-25T19:08:37.667Z,100190.98
2017-07-25T19:11:07.100Z,100191.49
2017-07-25T19:13:36.985Z,100201.75
2017-07-25T19:16:04.859Z,100196.52
2017-07-25T19:18:34.080Z,100194.94
2017-07-25T19:21:04.376Z,100192.44
2017-07-25T19:23:33.298Z,100191.99
2017-07-25T19:26:01.043Z,100196.73
2017-07-25T19:28:28.768Z,100190.28
2017-07-25T19:30:56.480Z,100198.27
2017-07-25T19:33:24.301Z,100195.98
2017-07-25T19:35:52.005Z,100191.12
2017-07-25T19:38:19.746Z,100179.50
2017-07-25T19:40:47.437Z,100184.94
2017-07-25T19:43:15.214Z,100193.06
2017-07-25T19:45:42.891Z,100190.84
2017-07-25T19:48:10.616Z,100174.16
2017-07-25T19:50:38.381Z,100171.48
2017-07-25T19:53:06.091Z,100175.28
2017-07-25T19:55:33.804Z,100172.06
2017-07-25T19:58:01.500Z,100175.89
2017-07-25T20:00:29.271Z,100177.88
2017-07-25T20:02:57.022Z,100172.06
2017-07-25T20:05:24.745Z,100171.31
2017-07-25T20:07:52.451Z,100169.23
2017-07-25T20:10:20.776Z,100172.80
2017-07-25T20:12:48.513Z,100164.22
2017-07-25T20:15:16.305Z,100170.27
2017-07-25T20:17:44.161Z,100171.91
2017-07-25T20:20:11.992Z,100161.52
2017-07-25T20:22:39.779Z,100150.17
2017-07-25T20:25:07.591Z,100163.23
2017-07-25T20:27:35.421Z,100166.66
2017-07-25T20:30:03.215Z,100167.14
2017-07-25T20:32:31.101Z,100164.37
2017-07-25T20:34:58.916Z,100167.20
2017-07-25T20:37:26.675Z,100164.81
2017-07-25T20:39:54.450Z,100163.82
2017-07-25T20:42:22.217Z,100157.23
2017-07-25T20:44:49.919Z,100181.67
2017-07-25T20:47:17.675Z,100176.03
2017-07-25T20:49:45.430Z,100177.80
2017-07-25T20:52:13.125Z,100166.25
2017-07-25T20:54:40.877Z,100172.05
2017-07-25T20:57:08.642Z,100167.48
2017-07-25T20:59:36.402Z,100163.00
2017-07-25T21:02:04.198Z,100170.55
2017-07-25T21:04:31.979Z,100177.14
2017-07-25T21:06:59.750Z,100165.89
2017-07-25T21:09:27.609Z,100156.17
2017-07-25T21:11:55.388Z,100175.22
2017-07-25T21:14:23.180Z,100167.39
2017-07-25T21:16:51.027Z,100163.22
2017-07-25T21:19:18.828Z,100160.05
2017-07-25T21:21:46.644Z,100157.89
2017-07-25T21:24:14.339Z,100170.34
2017-07-25T21:26:42.085Z,100170.95
2017-07-25T21:29:09.871Z,100166.37
2017-07-25T21:31:37.647Z,100164.67
2017-07-25T21:34:05.461Z,100162.55
2017-07-25T21:36:33.224Z,100167.20
2017-07-25T21:39:01.008Z,100154.45
2017-07-25T21:41:28.817Z,100161.57
2017-07-25T21:43:56.637Z,100160.82
2017-07-25T21:46:24.335Z,100161.55
2017-07-25T21:48:52.199Z,100166.22
2017-07-25T21:51:20.006Z,100165.75
2017-07-25T21:53:47.833Z,100170.50
2017-07-25T21:56:15.614Z,100164.52
2017-07-25T21:58:43.455Z,100164.58
2017-07-25T22:01:22.826Z,100157.81
2017-07-25T22:04:02.409Z,100162.30
2017-07-25T22:06:30.169Z,100168.14
2017-07-25T22:08:57.989Z,100165.58
2017-07-25T22:11:25.800Z,100168.75
2017-07-25T22:13:53.598Z,100162.59
2017-07-25T22:16:21.435Z,100166.42
2017-07-25T22:18:49.235Z,100165.38
2017-07-25T22:21:17.069Z,100160.98
2017-07-25T22:23:44.786Z,100157.53
2017-07-25T22:26:12.611Z,100164.75
2017-07-25T22:28:40.368Z,100155.92
2017-07-25T22:31:08.244Z,100166.73
2017-07-25T22:33:36.044Z,100166.80
2017-07-25T22:36:03.912Z,100169.27
2017-07-25T22:38:31.728Z,100167.86
2017-07-25T22:40:59.506Z,100151.03
2017-07-25T22:43:27.323Z,100156.33
2017-07-25T22:45:55.107Z,100159.75
2017-07-25T22:48:22.940Z,100155.16
2017-07-25T22:50:50.740Z,100152.98
2017-07-25T22:53:18.509Z,100151.20
2017-07-25T22:55:46.297Z,100149.97
2017-07-25T22:58:14.121Z,100145.58
2017-07-25T23:00:41.979Z,100139.83
2017-07-25T23:03:09.808Z,100142.23
2017-07-25T23:05:37.577Z,100144.86
2017-07-25T23:08:05.362Z,100140.00
2017-07-25T23:10:33.230Z,100141.00
2017-07-25T23:13:01.008Z,100143.19
2017-07-25T23:15:28.865Z,100132.37
2017-07-25T23:17:56.648Z,100139.16
2017-07-25T23:20:24.488Z,100137.72
2017-07-25T23:22:52.176Z,100140.76
2017-07-25T23:25:20.001Z,100144.77
2017-07-25T23:27:47.799Z,100134.33
2017-07-25T23:30:15.661Z,100144.35
2017-07-25T23:32:43.502Z,100145.00
2017-07-25T23:35:11.322Z,100144.42
2017-07-25T23:37:39.147Z,100137.98
2017-07-25T23:40:06.911Z,100130.33
2017-07-25T23:42:34.747Z,100137.61
2017-07-25T23:45:02.519Z,100136.38
2017-07-25T23:47:34.225Z,100145.82
2017-07-25T23:50:02.021Z,100150.23
2017-07-25T23:52:29.865Z,100146.20
2017-07-25T23:54:57.626Z,100142.78
2017-07-25T23:57:25.370Z,100139.39
2017-07-25T23:59:53.143Z,100140.80
